Time;durP1;ratioP1;P1;durP2;ratioP2;P2;SDS_P1;SDS_P2;PMS_P1;PMS_P2;Temp;Humidity;BMP_temperature;BMP_pressure;BME280_temperature;BME280_humidity;BME280_pressure;Samples;Min_cycle;Max_cycle;Signal;HPM_P1;HPM_P2
2023/11/12 00:04:09;;;;;;;2.70;2.08;;;;;;;;;;10188134;29;20055;-77
2023/11/12 00:09:13;;;;;;;3.70;2.33;;;;;;;;;;10181963;29;20064;-77
2023/11/12 00:14:18;;;;;;;2.97;2.10;;;;;;;;;;10187800;29;20041;-77
2023/11/12 00:19:21;;;;;;;2.47;1.90;;;;;;;;;;10153404;29;20052;-77
2023/11/12 00:24:24;;;;;;;1.42;1.20;;;;;;;;;;10190481;29;20067;-77
2023/11/12 00:29:29;;;;;;;1.80;1.25;;;;;;;;;;10184000;29;20054;-77
2023/11/12 00:34:34;;;;;;;1.65;1.30;;;;;;;;;;10187877;29;20079;-76
2023/11/12 00:39:40;;;;;;;4.68;2.50;;;;;;;;;;10173236;29;20055;-77
2023/11/12 00:44:45;;;;;;;4.30;2.03;;;;;;;;;;10178612;29;20044;-77
2023/11/12 00:49:49;;;;;;;2.50;1.65;;;;;;;;;;10169968;29;20505;-77
2023/11/12 00:54:52;;;;;;;2.72;1.60;;;;;;;;;;10168840;29;20724;-77
2023/11/12 00:59:58;;;;;;;2.42;1.60;;;;;;;;;;10168288;29;20040;-77
2023/11/12 01:05:01;;;;;;;2.13;1.57;;;;;;;;;;10183642;29;20052;-77
2023/11/12 01:10:09;;;;;;;3.05;1.33;;;;;;;;;;10186481;29;20043;-77
2023/11/12 01:15:17;;;;;;;1.30;1.10;;;;;;;;;;10181328;29;20051;-77
2023/11/12 01:20:21;;;;;;;1.20;1.02;;;;;;;;;;10180072;29;20068;-77
2023/11/12 01:25:26;;;;;;;2.73;1.70;;;;;;;;;;10175860;29;20056;-77
2023/11/12 01:30:32;;;;;;;2.53;1.60;;;;;;;;;;10168641;29;20108;-77
2023/11/12 01:35:35;;;;;;;1.35;1.25;;;;;;;;;;10188658;29;20131;-77
2023/11/12 01:40:41;;;;;;;1.33;0.98;;;;;;;;;;10185723;29;20067;-77
2023/11/12 01:45:46;;;;;;;1.67;1.25;;;;;;;;;;10176370;29;20067;-77
2023/11/12 01:50:50;;;;;;;2.67;1.58;;;;;;;;;;10197335;29;20052;-77
2023/11/12 01:55:55;;;;;;;2.03;1.27;;;;;;;;;;10179115;29;20063;-76
2023/11/12 02:01:01;;;;;;;1.50;1.00;;;;;;;;;;10173344;29;20051;-77
2023/11/12 02:06:06;;;;;;;1.30;1.20;;;;;;;;;;10171441;29;20134;-77
2023/11/12 02:11:13;;;;;;;1.30;1.20;;;;;;;;;;10179143;29;20062;-77
2023/11/12 02:16:18;;;;;;;2.28;1.42;;;;;;;;;;10167815;29;20048;-77
2023/11/12 02:21:26;;;;;;;1.80;1.33;;;;;;;;;;10185041;29;20047;-77
2023/11/12 02:26:33;;;;;;;1.52;1.15;;;;;;;;;;10177081;29;20058;-77
2023/11/12 02:31:36;;;;;;;1.30;1.17;;;;;;;;;;10171266;29;20051;-77
2023/11/12 02:36:40;;;;;;;1.60;1.42;;;;;;;;;;10179695;29;20155;-77
2023/11/12 02:41:45;;;;;;;2.40;1.30;;;;;;;;;;10181700;29;20051;-77
2023/11/12 02:46:49;;;;;;;2.10;1.40;;;;;;;;;;10159275;29;20531;-77
2023/11/12 02:51:54;;;;;;;1.48;1.20;;;;;;;;;;10187886;29;20111;-77
2023/11/12 02:57:02;;;;;;;2.37;1.47;;;;;;;;;;10179124;29;20043;-77
2023/11/12 03:02:16;;;;;;;1.40;1.10;;;;;;;;;;10165411;29;20104;-77
2023/11/12 03:07:19;;;;;;;1.10;1.00;;;;;;;;;;10171068;29;20059;-77
2023/11/12 03:12:24;;;;;;;2.17;1.20;;;;;;;;;;10183209;29;20668;-77
2023/11/12 03:17:28;;;;;;;2.03;1.25;;;;;;;;;;10180332;29;20067;-77
2023/11/12 03:22:33;;;;;;;1.45;1.23;;;;;;;;;;10184202;29;20428;-77
2023/11/12 03:27:38;;;;;;;1.52;1.33;;;;;;;;;;10214576;23;20067;-77
2023/11/12 03:32:42;;;;;;;2.72;1.10;;;;;;;;;;10181514;29;20058;-77
2023/11/12 03:37:45;;;;;;;1.30;1.13;;;;;;;;;;10143849;29;20049;-78
2023/11/12 03:42:51;;;;;;;3.05;1.10;;;;;;;;;;10149667;29;20048;-77
2023/11/12 03:47:55;;;;;;;1.45;1.20;;;;;;;;;;10134176;29;20060;-77
2023/11/12 03:52:59;;;;;;;1.20;1.10;;;;;;;;;;10149318;29;20497;-78
2023/11/12 03:58:04;;;;;;;1.40;1.05;;;;;;;;;;10131163;29;20051;-77
2023/11/12 04:03:07;;;;;;;1.65;1.20;;;;;;;;;;10158253;29;20060;-78
2023/11/12 04:08:10;;;;;;;1.75;1.42;;;;;;;;;;10157554;29;20078;-77
2023/11/12 04:13:16;;;;;;;2.88;1.40;;;;;;;;;;10146788;29;20059;-78
2023/11/12 04:18:19;;;;;;;1.10;1.00;;;;;;;;;;10139772;29;20056;-78
2023/11/12 04:23:23;;;;;;;1.67;1.10;;;;;;;;;;10155846;29;20684;-77
2023/11/12 04:28:28;;;;;;;2.55;1.58;;;;;;;;;;10137204;29;20063;-77
2023/11/12 04:33:32;;;;;;;2.87;2.10;;;;;;;;;;10153354;29;20080;-77
2023/11/12 04:38:35;;;;;;;3.03;1.38;;;;;;;;;;10137590;29;20720;-77
2023/11/12 04:43:41;;;;;;;1.60;1.50;;;;;;;;;;10132660;29;20052;-77
2023/11/12 04:48:45;;;;;;;1.92;1.50;;;;;;;;;;10146278;29;20053;-77
2023/11/12 04:53:49;;;;;;;2.05;1.38;;;;;;;;;;10153988;29;20057;-77
2023/11/12 04:58:53;;;;;;;1.40;1.10;;;;;;;;;;10142964;29;20055;-78
2023/11/12 05:03:57;;;;;;;3.42;1.15;;;;;;;;;;10153874;29;20081;-77
2023/11/12 05:09:00;;;;;;;2.17;1.38;;;;;;;;;;10147173;29;20048;-77
2023/11/12 05:14:05;;;;;;;3.90;1.77;;;;;;;;;;10149217;29;20052;-77
2023/11/12 05:19:09;;;;;;;2.45;1.65;;;;;;;;;;10152566;29;20048;-77
2023/11/12 05:24:13;;;;;;;2.20;1.58;;;;;;;;;;10141985;29;20060;-77
2023/11/12 05:29:18;;;;;;;2.85;1.70;;;;;;;;;;10143822;29;20060;-77
2023/11/12 05:34:21;;;;;;;2.30;1.42;;;;;;;;;;10150407;29;20049;-77
2023/11/12 05:39:25;;;;;;;2.00;1.80;;;;;;;;;;10148569;29;20433;-78
2023/11/12 05:44:30;;;;;;;2.42;1.70;;;;;;;;;;10130901;29;20083;-77
2023/11/12 05:49:34;;;;;;;2.13;1.70;;;;;;;;;;10156187;29;20048;-78
2023/11/12 05:54:37;;;;;;;2.33;1.88;;;;;;;;;;10154964;29;20059;-78
2023/11/12 05:59:42;;;;;;;3.20;1.85;;;;;;;;;;10159400;29;20041;-78
2023/11/12 06:04:46;;;;;;;2.85;1.40;;;;;;;;;;10156268;29;20052;-78
2023/11/12 06:09:49;;;;;;;2.08;1.73;;;;;;;;;;10148745;29;20052;-77
2023/11/12 06:14:54;;;;;;;2.97;1.75;;;;;;;;;;10148316;29;20080;-77
2023/11/12 06:19:58;;;;;;;3.38;2.42;;;;;;;;;;10155930;29;20052;-78
2023/11/12 06:25:01;;;;;;;3.17;2.33;;;;;;;;;;10154539;29;20045;-77
2023/11/12 06:30:08;;;;;;;2.58;1.88;;;;;;;;;;10153816;29;20052;-77
2023/11/12 06:35:12;;;;;;;2.38;1.80;;;;;;;;;;10150855;29;20049;-77
2023/11/12 06:40:16;;;;;;;3.10;2.00;;;;;;;;;;10147923;29;20048;-78
2023/11/12 06:45:21;;;;;;;2.30;2.00;;;;;;;;;;10154639;29;20116;-77
2023/11/12 06:50:24;;;;;;;2.28;1.70;;;;;;;;;;10141854;29;20065;-77
2023/11/12 06:55:29;;;;;;;3.17;2.13;;;;;;;;;;10121027;29;20056;-77
2023/11/12 07:00:34;;;;;;;2.10;1.90;;;;;;;;;;10140213;29;20057;-77
2023/11/12 07:05:38;;;;;;;2.33;1.80;;;;;;;;;;10120115;29;20049;-77
2023/11/12 07:10:42;;;;;;;2.40;2.20;;;;;;;;;;10128299;29;20592;-78
2023/11/12 07:15:47;;;;;;;3.50;2.33;;;;;;;;;;10129407;29;20045;-77
2023/11/12 07:20:50;;;;;;;2.15;1.80;;;;;;;;;;10137335;29;20131;-78
2023/11/12 07:25:54;;;;;;;2.35;1.80;;;;;;;;;;10137973;29;20060;-77
2023/11/12 07:30:59;;;;;;;2.47;2.17;;;;;;;;;;10132422;29;20049;-77
2023/11/12 07:36:03;;;;;;;3.85;2.30;;;;;;;;;;10144825;29;20049;-77
2023/11/12 07:41:07;;;;;;;3.70;2.58;;;;;;;;;;10143619;29;20536;-77
2023/11/12 07:46:12;;;;;;;3.83;2.28;;;;;;;;;;10152413;29;20131;-78
2023/11/12 07:51:16;;;;;;;3.30;2.50;;;;;;;;;;10167672;29;20067;-77
2023/11/12 07:56:21;;;;;;;3.33;2.30;;;;;;;;;;10137950;29;20517;-78
2023/11/12 08:01:28;;;;;;;4.00;2.47;;;;;;;;;;10129656;29;20058;-77
2023/11/12 08:06:31;;;;;;;2.75;2.10;;;;;;;;;;10125699;29;20052;-77
2023/11/12 08:11:39;;;;;;;4.25;2.60;;;;;;;;;;10147860;29;20049;-77
2023/11/12 08:16:44;;;;;;;2.75;1.90;;;;;;;;;;10121149;29;20053;-77
2023/11/12 08:21:48;;;;;;;2.20;1.88;;;;;;;;;;10151566;29;20056;-78
2023/11/12 08:26:51;;;;;;;2.15;1.77;;;;;;;;;;10144599;29;20729;-77
2023/11/12 08:31:57;;;;;;;3.28;2.25;;;;;;;;;;10133207;29;20052;-77
2023/11/12 08:37:02;;;;;;;3.05;2.58;;;;;;;;;;10147393;29;20055;-77
2023/11/12 08:42:06;;;;;;;3.22;2.35;;;;;;;;;;10164018;29;20139;-77
2023/11/12 08:47:11;;;;;;;2.35;1.90;;;;;;;;;;10125010;29;20550;-77
2023/11/12 08:52:15;;;;;;;3.05;2.53;;;;;;;;;;10138960;29;20074;-77
2023/11/12 08:57:19;;;;;;;4.00;3.45;;;;;;;;;;10157432;29;20040;-77
2023/11/12 09:02:24;;;;;;;3.58;2.22;;;;;;;;;;10151154;29;20144;-78
2023/11/12 09:07:28;;;;;;;3.72;2.75;;;;;;;;;;10136910;29;20072;-78
2023/11/12 09:12:32;;;;;;;5.13;2.78;;;;;;;;;;10155408;29;20053;-77
2023/11/12 09:24:13;;;;;;;3.60;2.30;;;;;;;;;;10186599;23;20055;-82
2023/11/12 09:29:16;;;;;;;3.47;2.50;;;;;;;;;;10169575;23;20131;-76
2023/11/12 09:34:22;;;;;;;5.53;3.35;;;;;;;;;;10176698;29;20135;-76
2023/11/12 09:39:35;;;;;;;4.97;2.55;;;;;;;;;;10187107;29;20082;-75
2023/11/12 09:44:45;;;;;;;3.33;2.30;;;;;;;;;;10156372;29;20074;-76
2023/11/12 09:49:52;;;;;;;3.10;1.73;;;;;;;;;;10166187;29;20524;-76
2023/11/12 09:55:14;;;;;;;2.78;1.70;;;;;;;;;;10170184;29;20059;-76
2023/11/12 10:00:37;;;;;;;3.70;1.90;;;;;;;;;;10174967;29;20058;-76
2023/11/12 10:05:48;;;;;;;3.45;2.13;;;;;;;;;;10158772;29;20131;-76
2023/11/12 10:10:54;;;;;;;3.63;2.00;;;;;;;;;;10190695;29;20040;-76
2023/11/12 10:16:00;;;;;;;4.10;2.43;;;;;;;;;;10183426;29;20143;-76
2023/11/12 10:21:10;;;;;;;3.67;2.20;;;;;;;;;;10190245;29;20572;-76
2023/11/12 10:26:38;;;;;;;2.78;1.85;;;;;;;;;;10190185;29;20186;-75
2023/11/12 10:31:59;;;;;;;2.72;2.08;;;;;;;;;;10184571;29;20055;-75
2023/11/12 10:37:03;;;;;;;6.80;3.05;;;;;;;;;;10186042;29;20569;-75
2023/11/12 10:42:20;;;;;;;5.32;3.47;;;;;;;;;;10168274;29;20060;-76
2023/11/12 10:47:26;;;;;;;5.10;2.85;;;;;;;;;;10179681;29;20108;-76
2023/11/12 10:52:32;;;;;;;4.22;2.20;;;;;;;;;;10164772;29;20052;-76
2023/11/12 10:57:42;;;;;;;4.32;2.60;;;;;;;;;;10185850;29;20048;-76
2023/11/12 11:02:47;;;;;;;4.18;2.35;;;;;;;;;;10185906;29;20130;-76
2023/11/12 11:07:51;;;;;;;3.67;2.30;;;;;;;;;;10182191;29;20107;-75
2023/11/12 11:12:58;;;;;;;4.78;2.40;;;;;;;;;;10194826;29;20603;-75
2023/11/12 11:18:03;;;;;;;3.50;1.88;;;;;;;;;;10180930;29;20047;-76
2023/11/12 11:23:39;;;;;;;4.57;2.20;;;;;;;;;;10181032;29;20099;-75
2023/11/12 11:29:13;;;;;;;5.50;3.40;;;;;;;;;;10191326;29;20071;-75
2023/11/12 11:34:18;;;;;;;2.40;1.97;;;;;;;;;;10187791;29;20148;-75
2023/11/12 11:39:28;;;;;;;4.30;2.17;;;;;;;;;;10161255;29;20578;-75
2023/11/12 11:44:43;;;;;;;2.30;1.13;;;;;;;;;;10165121;29;20051;-75
2023/11/12 11:49:51;;;;;;;1.38;1.10;;;;;;;;;;10181439;29;20134;-75
2023/11/12 11:55:00;;;;;;;2.25;1.50;;;;;;;;;;10169211;29;20122;-76
2023/11/12 12:00:13;;;;;;;3.20;1.70;;;;;;;;;;10167420;29;20179;-76
2023/11/12 12:05:30;;;;;;;3.95;1.30;;;;;;;;;;10161397;29;20059;-76
2023/11/12 12:17:26;;;;;;;3.80;1.23;;;;;;;;;;10126443;29;20603;-75
2023/11/12 12:22:32;;;;;;;2.97;1.10;;;;;;;;;;10166176;29;20398;-76
2023/11/12 12:28:09;;;;;;;3.45;1.85;;;;;;;;;;10181609;29;20048;-76
2023/11/12 12:33:33;;;;;;;2.53;1.70;;;;;;;;;;10162634;29;20421;-76
2023/11/12 12:38:51;;;;;;;3.20;1.58;;;;;;;;;;10181552;29;20099;-76
2023/11/12 12:49:30;;;;;;;4.03;1.67;;;;;;;;;;10148697;29;20485;-76
2023/11/12 12:54:33;;;;;;;4.30;1.55;;;;;;;;;;10166195;29;20501;-75
2023/11/12 12:59:46;;;;;;;6.72;2.05;;;;;;;;;;10185641;29;20352;-78
2023/11/12 13:04:53;;;;;;;2.47;1.65;;;;;;;;;;10187267;29;20050;-77
2023/11/12 13:10:00;;;;;;;5.78;1.98;;;;;;;;;;10173237;29;20048;-77
2023/11/12 13:15:15;;;;;;;3.42;1.50;;;;;;;;;;10179749;29;20106;-77
2023/11/12 13:20:44;;;;;;;3.80;1.98;;;;;;;;;;10186314;29;20131;-78
2023/11/12 13:26:01;;;;;;;5.35;1.88;;;;;;;;;;10189894;29;20106;-77
2023/11/12 13:31:04;;;;;;;5.90;3.45;;;;;;;;;;10179513;29;20055;-77
2023/11/12 13:36:11;;;;;;;7.30;3.22;;;;;;;;;;10198883;29;20039;-77
2023/11/12 13:41:20;;;;;;;3.80;1.80;;;;;;;;;;10182479;29;20059;-77
2023/11/12 13:46:24;;;;;;;3.25;1.77;;;;;;;;;;10177515;29;20060;-77
2023/11/12 13:51:35;;;;;;;4.63;1.70;;;;;;;;;;10172713;29;20726;-77
2023/11/12 13:56:46;;;;;;;2.42;1.30;;;;;;;;;;10175193;29;20103;-77
2023/11/12 14:01:50;;;;;;;2.45;1.40;;;;;;;;;;10181113;29;20309;-77
2023/11/12 14:06:55;;;;;;;6.57;1.60;;;;;;;;;;10180256;29;20044;-77
2023/11/12 14:11:58;;;;;;;2.83;1.30;;;;;;;;;;10174697;29;20110;-77
2023/11/12 14:17:06;;;;;;;4.72;1.52;;;;;;;;;;10179938;29;20057;-77
2023/11/12 14:22:17;;;;;;;2.38;1.33;;;;;;;;;;10168171;29;20056;-77
2023/11/12 14:27:21;;;;;;;2.05;1.13;;;;;;;;;;10182981;29;20047;-75
2023/11/12 14:32:27;;;;;;;6.13;2.55;;;;;;;;;;10187613;29;20078;-75
2023/11/12 14:38:10;;;;;;;14.13;5.28;;;;;;;;;;10161583;29;20071;-75
2023/11/12 14:43:21;;;;;;;7.55;2.90;;;;;;;;;;10159045;29;20492;-75
2023/11/12 14:48:33;;;;;;;4.80;2.10;;;;;;;;;;10177173;29;20112;-75
2023/11/12 14:53:48;;;;;;;3.17;1.52;;;;;;;;;;10187445;29;20143;-75
2023/11/12 14:58:56;;;;;;;3.67;1.67;;;;;;;;;;10177885;29;20390;-75
2023/11/12 15:04:00;;;;;;;3.88;1.58;;;;;;;;;;10171866;29;20067;-75
2023/11/12 15:09:20;;;;;;;2.47;1.20;;;;;;;;;;10165165;29;20096;-75
2023/11/12 15:14:24;;;;;;;3.13;1.38;;;;;;;;;;10177493;29;20111;-75
2023/11/12 15:19:34;;;;;;;2.17;1.23;;;;;;;;;;10164923;29;20052;-75
2023/11/12 15:25:04;;;;;;;;;;;;;;;;;;10172328;29;20065;-75
2023/11/12 15:35:50;;;;;;;2.17;1.40;;;;;;;;;;12331770;23;20024;-86
2023/11/12 15:40:53;;;;;;;3.28;1.73;;;;;;;;;;10170055;29;20774;-86
2023/11/12 15:45:57;;;;;;;2.20;1.50;;;;;;;;;;10131875;29;20052;-86
2023/11/12 15:51:01;;;;;;;3.25;1.58;;;;;;;;;;10153355;29;20440;-86
2023/11/12 15:56:05;;;;;;;3.92;1.35;;;;;;;;;;10166738;29;20054;-85
2023/11/12 16:01:09;;;;;;;2.08;1.27;;;;;;;;;;10164233;29;20071;-86
2023/11/12 16:06:15;;;;;;;1.80;1.50;;;;;;;;;;10166517;29;20102;-86
2023/11/12 16:11:18;;;;;;;;;;;;;;;;;;10165000;29;20084;-86
2023/11/12 16:16:22;;;;;;;3.03;1.52;;;;;;;;;;10145427;29;20018;-86
2023/11/12 16:21:26;;;;;;;3.53;1.58;;;;;;;;;;10150976;29;20116;-87
2023/11/12 16:26:30;;;;;;;2.35;1.23;;;;;;;;;;10142174;29;20075;-86
2023/11/12 16:31:34;;;;;;;5.38;2.03;;;;;;;;;;10163333;29;20115;-87
2023/11/12 16:36:39;;;;;;;4.15;2.10;;;;;;;;;;10146318;29;20056;-86
2023/11/12 16:41:45;;;;;;;3.15;1.90;;;;;;;;;;10140728;29;20041;-86
2023/11/12 16:46:49;;;;;;;3.83;1.70;;;;;;;;;;10141842;29;20139;-87
2023/11/12 16:51:53;;;;;;;3.63;1.50;;;;;;;;;;10152088;29;20071;-85
2023/11/12 16:56:58;;;;;;;5.90;2.05;;;;;;;;;;10155056;29;20055;-86
2023/11/12 17:02:02;;;;;;;3.28;2.00;;;;;;;;;;10148523;29;20131;-86
2023/11/12 17:07:08;;;;;;;3.65;2.10;;;;;;;;;;10166974;29;20701;-86
2023/11/12 17:12:13;;;;;;;2.95;2.20;;;;;;;;;;10155278;29;20091;-86
2023/11/12 17:17:17;;;;;;;3.58;1.95;;;;;;;;;;10156626;29;20456;-86
2023/11/12 17:22:24;;;;;;;3.80;2.20;;;;;;;;;;10139532;29;20569;-86
2023/11/12 17:27:27;;;;;;;;;;;;;;;;;;10163698;29;20536;-87
2023/11/12 17:32:31;;;;;;;4.55;1.75;;;;;;;;;;10147611;29;19927;-86
2023/11/12 17:37:35;;;;;;;2.63;1.58;;;;;;;;;;10159915;29;20104;-84
2023/11/12 17:42:39;;;;;;;4.55;2.28;;;;;;;;;;10152707;29;20075;-85
2023/11/12 17:47:42;;;;;;;3.88;2.05;;;;;;;;;;10149868;29;20055;-86
2023/11/12 17:52:47;;;;;;;5.15;2.10;;;;;;;;;;10169086;29;20041;-84
2023/11/12 17:57:50;;;;;;;3.80;2.20;;;;;;;;;;10161140;29;20523;-85
2023/11/12 18:02:54;;;;;;;2.85;1.70;;;;;;;;;;10152056;29;20047;-85
2023/11/12 18:07:58;;;;;;;3.22;1.70;;;;;;;;;;10158219;29;20084;-83
2023/11/12 18:13:02;;;;;;;2.33;1.80;;;;;;;;;;10156384;29;20082;-85
2023/11/12 18:18:05;;;;;;;3.60;2.03;;;;;;;;;;10168367;29;20111;-86
2023/11/12 18:23:10;;;;;;;4.18;2.40;;;;;;;;;;10140449;29;20055;-85
2023/11/12 18:28:13;;;;;;;3.35;2.10;;;;;;;;;;10141533;29;20107;-86
2023/11/12 18:33:18;;;;;;;5.35;3.00;;;;;;;;;;10143812;29;20408;-85
2023/11/12 18:38:22;;;;;;;4.35;2.47;;;;;;;;;;10171648;29;20489;-85
2023/11/12 18:43:26;;;;;;;4.72;2.35;;;;;;;;;;10131676;29;20313;-85
2023/11/12 18:48:32;;;;;;;5.60;2.90;;;;;;;;;;10166020;29;20071;-84
2023/11/12 18:53:38;;;;;;;6.07;3.58;;;;;;;;;;10123131;29;20436;-85
2023/11/12 18:58:42;;;;;;;6.32;3.17;;;;;;;;;;10170168;29;20460;-86
2023/11/12 19:03:46;;;;;;;3.90;2.63;;;;;;;;;;10142553;29;20076;-86
2023/11/12 19:08:51;;;;;;;6.18;2.95;;;;;;;;;;10152743;29;20587;-86
2023/11/12 19:13:54;;;;;;;4.28;2.33;;;;;;;;;;10152926;29;20047;-85
2023/11/12 19:18:58;;;;;;;5.07;2.55;;;;;;;;;;10133765;29;20088;-84
2023/11/12 19:24:07;;;;;;;3.83;2.47;;;;;;;;;;10161476;29;20104;-86
2023/11/12 19:29:11;;;;;;;3.50;2.40;;;;;;;;;;10166731;29;20491;-86
2023/11/12 19:34:15;;;;;;;4.95;2.65;;;;;;;;;;10155781;29;20060;-85
2023/11/12 19:39:20;;;;;;;5.47;3.00;;;;;;;;;;10154243;29;20138;-88
2023/11/12 19:44:25;;;;;;;4.43;2.78;;;;;;;;;;10150794;29;20479;-86
2023/11/12 19:49:28;;;;;;;4.32;2.90;;;;;;;;;;10153912;29;20118;-86
2023/11/12 19:54:40;;;;;;;6.47;3.75;;;;;;;;;;10145110;29;20154;-85
2023/11/12 19:59:45;;;;;;;6.45;3.42;;;;;;;;;;10139403;29;20103;-86
2023/11/12 20:04:48;;;;;;;4.55;2.80;;;;;;;;;;10151801;29;20495;-86
2023/11/12 20:09:55;;;;;;;4.43;3.08;;;;;;;;;;10156175;29;20048;-87
2023/11/12 20:15:01;;;;;;;4.55;2.83;;;;;;;;;;10163806;29;20139;-85
2023/11/12 20:20:05;;;;;;;4.72;3.10;;;;;;;;;;10166734;29;20104;-86
2023/11/12 20:25:12;;;;;;;5.88;3.40;;;;;;;;;;10159211;29;20063;-86
2023/11/12 20:30:16;;;;;;;4.68;2.85;;;;;;;;;;10153694;29;20060;-87
2023/11/12 20:35:20;;;;;;;11.73;5.78;;;;;;;;;;10153495;29;20118;-86
2023/11/12 20:40:26;;;;;;;10.50;5.65;;;;;;;;;;10132631;29;20339;-86
2023/11/12 20:45:29;;;;;;;7.30;4.15;;;;;;;;;;10161196;29;20048;-85
2023/11/12 20:50:35;;;;;;;7.45;3.65;;;;;;;;;;10161592;29;20108;-86
2023/11/12 20:55:43;;;;;;;6.43;4.00;;;;;;;;;;10160097;29;20491;-83
2023/11/12 21:00:46;;;;;;;5.60;3.15;;;;;;;;;;10170100;29;20092;-85
2023/11/12 21:05:50;;;;;;;4.50;2.33;;;;;;;;;;10156792;29;20071;-87
2023/11/12 21:10:54;;;;;;;3.55;2.60;;;;;;;;;;10143178;29;20080;-86
2023/11/12 21:15:58;;;;;;;4.07;2.50;;;;;;;;;;10141270;29;20080;-87
2023/11/12 21:21:03;;;;;;;2.72;2.10;;;;;;;;;;10159095;29;20067;-86
2023/11/12 21:26:18;;;;;;;3.60;2.03;;;;;;;;;;10171464;29;20059;-85
2023/11/12 21:31:27;;;;;;;2.20;1.50;;;;;;;;;;10149643;29;20167;-76
2023/11/12 21:36:30;;;;;;;2.90;2.00;;;;;;;;;;10150956;29;20056;-76
2023/11/12 21:41:34;;;;;;;2.95;1.88;;;;;;;;;;10147281;29;20061;-76
2023/11/12 21:46:43;;;;;;;3.00;2.10;;;;;;;;;;10155749;29;20067;-76
2023/11/12 21:51:49;;;;;;;2.95;1.95;;;;;;;;;;10139539;29;20072;-76
2023/11/12 21:56:59;;;;;;;3.08;1.95;;;;;;;;;;10147622;29;20084;-77
2023/11/12 22:02:06;;;;;;;3.20;1.70;;;;;;;;;;10146297;29;20052;-76
2023/11/12 22:07:13;;;;;;;3.35;1.73;;;;;;;;;;10142098;29;20429;-76
2023/11/12 22:12:17;;;;;;;2.45;1.85;;;;;;;;;;10144517;29;20099;-76
2023/11/12 22:17:25;;;;;;;3.63;1.52;;;;;;;;;;10142052;29;20055;-75
2023/11/12 22:22:28;;;;;;;2.55;1.38;;;;;;;;;;10148667;29;20063;-75
2023/11/12 22:27:33;;;;;;;1.50;1.40;;;;;;;;;;10140857;29;20049;-75
2023/11/12 22:32:38;;;;;;;1.85;1.42;;;;;;;;;;10140206;29;20399;-75
2023/11/12 22:37:43;;;;;;;2.38;1.45;;;;;;;;;;10141744;29;20761;-75
2023/11/12 22:42:47;;;;;;;1.27;1.10;;;;;;;;;;10141632;29;20151;-75
2023/11/12 22:47:52;;;;;;;1.73;1.10;;;;;;;;;;10144205;29;20056;-76
2023/11/12 22:52:55;;;;;;;2.40;1.17;;;;;;;;;;10144721;29;20800;-76
2023/11/12 22:57:59;;;;;;;2.72;1.30;;;;;;;;;;10123839;29;20147;-76
2023/11/12 23:03:05;;;;;;;1.70;1.00;;;;;;;;;;10141694;29;20058;-76
2023/11/12 23:08:08;;;;;;;1.33;1.02;;;;;;;;;;10140068;29;20056;-76
2023/11/12 23:13:13;;;;;;;1.80;1.20;;;;;;;;;;10135641;29;20072;-76
2023/11/12 23:18:19;;;;;;;1.63;1.20;;;;;;;;;;10139485;29;20045;-75
2023/11/12 23:23:23;;;;;;;;;;;;;;;;;;10143005;29;20050;-76
2023/11/12 23:28:28;;;;;;;1.55;1.00;;;;;;;;;;10150453;29;19932;-76
2023/11/12 23:33:35;;;;;;;1.58;1.20;;;;;;;;;;10132965;29;20087;-76
2023/11/12 23:38:38;;;;;;;2.00;1.10;;;;;;;;;;10139200;29;20108;-76
2023/11/12 23:43:44;;;;;;;1.73;1.07;;;;;;;;;;10147603;29;20055;-76
2023/11/12 23:54:37;;;;;;;2.45;1.55;;;;;;;;;;10163881;23;20056;-76
2023/11/12 23:59:47;;;;;;;1.95;1.70;;;;;;;;;;10191059;29;20055;-75
